createdAt,value
2022-12-06T00:00:29.278Z,2.51
2022-12-06T00:01:29.276Z,2.57
2022-12-06T00:02:29.278Z,2.55
2022-12-06T00:03:29.385Z,2.55
2022-12-06T00:04:29.084Z,2.58
2022-12-06T00:05:29.142Z,2.46
2022-12-06T00:06:28.989Z,2.43
2022-12-06T00:07:29.210Z,2.44
2022-12-06T00:08:28.884Z,2.46
2022-12-06T00:09:28.965Z,2.41
2022-12-06T00:10:28.790Z,2.43
2022-12-06T00:11:29.181Z,2.44
2022-12-06T00:12:28.695Z,2.41
2022-12-06T00:13:28.636Z,2.44
2022-12-06T00:14:28.587Z,2.41
2022-12-06T00:15:28.596Z,2.37
2022-12-06T00:16:28.546Z,2.43
2022-12-06T00:17:28.610Z,2.41
2022-12-06T00:18:28.397Z,2.44
2022-12-06T00:19:28.342Z,2.43
2022-12-06T00:20:28.294Z,2.44
2022-12-06T00:21:28.448Z,2.44
2022-12-06T00:22:28.288Z,2.58
2022-12-06T00:23:31.645Z,2.47
2022-12-06T00:24:28.097Z,2.37
2022-12-06T00:25:28.044Z,2.34
2022-12-06T00:26:27.994Z,2.39
2022-12-06T00:27:28.072Z,2.36
2022-12-06T00:28:27.928Z,2.36
2022-12-06T00:29:28.085Z,2.30
2022-12-06T00:30:27.802Z,2.30
2022-12-06T00:31:27.938Z,2.23
2022-12-06T00:32:27.726Z,2.23
2022-12-06T00:33:27.708Z,2.25
2022-12-06T00:34:27.766Z,2.26
2022-12-06T00:35:27.716Z,2.25
2022-12-06T00:36:27.507Z,2.22
2022-12-06T00:37:27.450Z,2.22
2022-12-06T00:38:27.403Z,2.28
2022-12-06T00:39:27.547Z,2.32
2022-12-06T00:40:27.335Z,2.21
2022-12-06T00:41:27.354Z,2.16
2022-12-06T00:42:27.206Z,2.21
2022-12-06T00:43:27.367Z,2.26
2022-12-06T00:44:27.106Z,2.22
2022-12-06T00:45:27.183Z,2.18
2022-12-06T00:46:27.366Z,2.15
2022-12-06T00:47:27.202Z,2.05
2022-12-06T00:48:26.909Z,2.08
2022-12-06T00:49:27.001Z,2.22
2022-12-06T00:50:26.812Z,2.25
2022-12-06T00:51:26.813Z,2.16
2022-12-06T00:52:26.723Z,2.22
2022-12-06T00:53:26.831Z,2.21
2022-12-06T00:54:26.612Z,2.14
2022-12-06T00:55:26.640Z,2.22
2022-12-06T00:56:26.514Z,2.16
2022-12-06T00:57:26.862Z,2.22
2022-12-06T00:58:26.413Z,2.25
2022-12-06T00:59:26.466Z,2.15
2022-12-06T01:00:26.314Z,2.26
2022-12-06T01:01:26.564Z,2.32
2022-12-06T01:02:26.218Z,2.26
2022-12-06T01:03:29.637Z,2.15
2022-12-06T01:04:26.118Z,2.25
2022-12-06T01:05:26.298Z,2.25
2022-12-06T01:06:26.024Z,2.28
2022-12-06T01:07:26.122Z,2.25
2022-12-06T01:08:26.171Z,2.23
2022-12-06T01:09:26.128Z,2.26
2022-12-06T01:10:25.822Z,2.22
2022-12-06T01:11:25.943Z,2.30
2022-12-06T01:12:25.749Z,2.26
2022-12-06T01:13:25.768Z,2.16
2022-12-06T01:14:25.653Z,2.33
2022-12-06T01:15:25.769Z,2.16
2022-12-06T01:16:25.588Z,2.32
2022-12-06T01:17:25.606Z,2.26
2022-12-06T01:18:25.424Z,2.25
2022-12-06T01:19:25.799Z,2.23
2022-12-06T01:20:25.398Z,2.14
2022-12-06T01:21:25.287Z,2.21
2022-12-06T01:22:25.405Z,2.25
2022-12-06T01:23:25.183Z,2.22
2022-12-06T01:24:25.236Z,2.21
2022-12-06T01:25:26.250Z,2.19
2022-12-06T01:26:25.029Z,2.21
2022-12-06T01:27:25.261Z,2.19
2022-12-06T01:28:24.933Z,2.16
2022-12-06T01:29:25.263Z,2.21
2022-12-06T01:30:24.883Z,2.18
2022-12-06T01:31:24.892Z,2.30
2022-12-06T01:32:24.858Z,2.19
2022-12-06T01:33:24.681Z,2.22
2022-12-06T01:34:24.876Z,2.28
2022-12-06T01:35:24.602Z,2.28
2022-12-06T01:36:24.686Z,2.33
2022-12-06T01:37:24.486Z,2.34
2022-12-06T01:38:24.434Z,2.39
2022-12-06T01:39:24.385Z,2.33
2022-12-06T01:40:24.507Z,2.32
2022-12-06T01:41:24.576Z,2.40
2022-12-06T01:42:24.524Z,2.41
2022-12-06T01:43:24.190Z,2.39
2022-12-06T01:44:24.392Z,2.33
2022-12-06T01:45:24.092Z,2.46
2022-12-06T01:46:24.214Z,2.41
2022-12-06T01:47:23.993Z,2.44
2022-12-06T01:48:24.160Z,2.52
2022-12-06T01:49:23.891Z,2.57
2022-12-06T01:50:23.847Z,2.52
2022-12-06T01:51:23.980Z,2.52
2022-12-06T01:52:23.745Z,2.57
2022-12-06T01:53:25.679Z,2.57
2022-12-06T01:54:23.844Z,2.58
2022-12-06T01:55:23.798Z,2.62
2022-12-06T01:56:23.805Z,2.68
2022-12-06T01:57:23.499Z,2.62
2022-12-06T01:58:23.619Z,2.79
2022-12-06T01:59:23.399Z,2.72
2022-12-06T02:00:23.635Z,2.75
2022-12-06T02:01:23.326Z,2.83
2022-12-06T02:02:23.294Z,2.90
2022-12-06T02:03:23.199Z,2.97
2022-12-06T02:04:23.251Z,2.91
2022-12-06T02:05:23.323Z,2.93
2022-12-06T02:06:23.265Z,2.97
2022-12-06T02:07:23.006Z,2.93
2022-12-06T02:08:23.050Z,2.93
2022-12-06T02:09:22.909Z,2.93
2022-12-06T02:10:23.091Z,2.88
2022-12-06T02:11:22.841Z,2.95
2022-12-06T02:12:22.902Z,2.85
2022-12-06T02:13:22.713Z,2.85
2022-12-06T02:14:22.708Z,2.73
2022-12-06T02:15:22.614Z,2.83
2022-12-06T02:16:22.769Z,2.83
2022-12-06T02:17:22.793Z,2.80
2022-12-06T02:18:22.743Z,2.77
2022-12-06T02:19:22.418Z,2.87
2022-12-06T02:20:22.551Z,2.79
2022-12-06T02:21:22.327Z,2.85
2022-12-06T02:22:22.360Z,2.85
2022-12-06T02:23:22.329Z,2.90
2022-12-06T02:24:23.401Z,2.87
2022-12-06T02:25:22.227Z,2.97
2022-12-06T02:26:22.182Z,2.93
2022-12-06T02:27:22.029Z,2.97
2022-12-06T02:28:22.201Z,2.90
2022-12-06T02:29:21.969Z,2.90
2022-12-06T02:30:22.010Z,2.91
2022-12-06T02:31:21.890Z,2.93
2022-12-06T02:32:22.024Z,2.94
2022-12-06T02:33:21.729Z,2.93
2022-12-06T02:34:21.836Z,2.98
2022-12-06T02:35:22.096Z,2.91
2022-12-06T02:36:21.844Z,2.93
2022-12-06T02:37:21.538Z,2.98
2022-12-06T02:38:21.664Z,2.91
2022-12-06T02:39:21.443Z,3.06
2022-12-06T02:40:21.465Z,2.98
2022-12-06T02:41:21.386Z,2.98
2022-12-06T02:42:21.484Z,3.00
2022-12-06T02:43:21.242Z,3.06
2022-12-06T02:44:21.291Z,3.09
2022-12-06T02:45:21.141Z,3.05
2022-12-06T02:46:21.370Z,3.05
2022-12-06T02:47:21.157Z,3.00
2022-12-06T02:48:21.127Z,2.94
2022-12-06T02:49:20.945Z,2.93
2022-12-06T02:50:21.131Z,2.97
2022-12-06T02:51:20.873Z,3.03
2022-12-06T02:52:20.939Z,3.09
2022-12-06T02:53:20.754Z,2.97
2022-12-06T02:54:21.161Z,3.05
2022-12-06T02:55:20.646Z,3.13
2022-12-06T02:56:20.766Z,3.15
2022-12-06T02:57:20.567Z,3.16
2022-12-06T02:58:20.782Z,3.12
2022-12-06T02:59:20.451Z,3.13
2022-12-06T03:00:20.597Z,3.19
2022-12-06T03:01:20.407Z,3.15
2022-12-06T03:02:20.438Z,3.22
2022-12-06T03:03:20.257Z,3.24
2022-12-06T03:04:20.420Z,3.24
2022-12-06T03:05:20.158Z,3.24
2022-12-06T03:06:20.430Z,3.31
2022-12-06T03:07:20.061Z,3.41
2022-12-06T03:08:20.374Z,3.34
2022-12-06T03:09:20.247Z,3.43
2022-12-06T03:10:19.913Z,3.46
2022-12-06T03:11:20.056Z,3.48
2022-12-06T03:12:19.840Z,3.33
2022-12-06T03:13:19.863Z,3.43
2022-12-06T03:14:19.721Z,3.37
2022-12-06T03:15:19.667Z,3.45
2022-12-06T03:16:19.964Z,3.43
2022-12-06T03:17:19.570Z,3.49
2022-12-06T03:18:19.701Z,3.48
2022-12-06T03:19:19.474Z,3.52
2022-12-06T03:20:19.515Z,3.50
2022-12-06T03:21:19.524Z,3.46
2022-12-06T03:22:19.323Z,3.46
2022-12-06T03:23:19.736Z,3.40
2022-12-06T03:24:19.233Z,3.43
2022-12-06T03:25:20.364Z,3.37
2022-12-06T03:26:19.132Z,3.36
2022-12-06T03:27:19.085Z,3.19
2022-12-06T03:28:19.158Z,3.19
2022-12-06T03:29:19.010Z,3.18
2022-12-06T03:30:19.379Z,3.21
2022-12-06T03:31:18.920Z,3.21
2022-12-06T03:32:18.977Z,3.37
2022-12-06T03:33:18.789Z,3.33
2022-12-06T03:34:18.741Z,3.37
2022-12-06T03:35:19.005Z,3.24
2022-12-06T03:36:18.641Z,3.22
2022-12-06T03:37:18.817Z,3.34
2022-12-06T03:38:18.546Z,3.31
2022-12-06T03:39:18.496Z,3.36
2022-12-06T03:40:18.631Z,3.31
2022-12-06T03:41:18.399Z,3.24
2022-12-06T03:42:18.444Z,3.27
2022-12-06T03:43:18.498Z,3.27
2022-12-06T03:44:18.476Z,3.29
2022-12-06T03:45:18.209Z,3.29
2022-12-06T03:46:18.450Z,3.34
2022-12-06T03:47:18.127Z,3.34
2022-12-06T03:48:18.285Z,3.43
2022-12-06T03:49:18.009Z,3.48
2022-12-06T03:50:18.297Z,3.46
2022-12-06T03:51:18.093Z,3.58
2022-12-06T03:52:17.878Z,3.58
2022-12-06T03:53:17.909Z,3.55
2022-12-06T03:54:17.758Z,3.66
2022-12-06T03:55:17.928Z,3.78
2022-12-06T03:56:17.775Z,3.73
2022-12-06T03:57:17.613Z,3.77
2022-12-06T03:58:17.739Z,3.71
2022-12-06T03:59:17.515Z,3.84
2022-12-06T04:00:17.765Z,3.82
2022-12-06T04:01:17.456Z,3.96
2022-12-06T04:02:17.853Z,3.94
2022-12-06T04:03:17.643Z,3.96
2022-12-06T04:04:17.353Z,3.99
2022-12-06T04:05:17.378Z,4.02
2022-12-06T04:06:17.177Z,4.03
2022-12-06T04:07:17.396Z,4.07
2022-12-06T04:08:17.339Z,4.13
2022-12-06T04:09:17.055Z,4.10
2022-12-06T04:10:17.214Z,4.20
2022-12-06T04:11:16.938Z,4.21
2022-12-06T04:12:17.021Z,4.16
2022-12-06T04:13:19.797Z,4.21
2022-12-06T04:14:17.038Z,4.24
2022-12-06T04:15:16.840Z,4.21
2022-12-06T04:16:16.860Z,4.20
2022-12-06T04:17:17.064Z,4.22
2022-12-06T04:18:16.600Z,4.28
2022-12-06T04:19:16.660Z,4.22
2022-12-06T04:20:16.494Z,4.32
2022-12-06T04:21:16.449Z,4.30
2022-12-06T04:22:16.427Z,4.16
2022-12-06T04:23:16.590Z,4.21
2022-12-06T04:24:16.300Z,4.18
2022-12-06T04:25:16.503Z,4.18
2022-12-06T04:26:16.207Z,4.21
2022-12-06T04:27:16.156Z,4.28
2022-12-06T04:28:16.104Z,4.22
2022-12-06T04:29:16.331Z,4.32
2022-12-06T04:30:16.010Z,4.24
2022-12-06T04:31:21.802Z,4.28
2022-12-06T04:32:15.912Z,4.21
2022-12-06T04:33:15.868Z,4.27
2022-12-06T04:34:15.812Z,4.21
2022-12-06T04:35:16.169Z,4.25
2022-12-06T04:36:15.714Z,4.21
2022-12-06T04:37:15.771Z,4.16
2022-12-06T04:38:15.621Z,4.22
2022-12-06T04:39:20.546Z,4.24
2022-12-06T04:40:15.521Z,4.32
2022-12-06T04:41:15.603Z,4.22
2022-12-06T04:42:15.430Z,4.20
2022-12-06T04:43:15.612Z,4.20
2022-12-06T04:44:15.325Z,4.24
2022-12-06T04:45:15.636Z,4.24
2022-12-06T04:46:15.260Z,4.18
2022-12-06T04:47:15.436Z,4.18
2022-12-06T04:48:15.134Z,4.22
2022-12-06T04:49:15.246Z,4.22
2022-12-06T04:50:15.034Z,4.16
2022-12-06T04:51:15.259Z,4.20
2022-12-06T04:52:14.946Z,4.18
2022-12-06T04:53:15.068Z,4.14
2022-12-06T04:54:14.840Z,4.16
2022-12-06T04:55:15.081Z,4.09
2022-12-06T04:56:14.749Z,4.07
2022-12-06T04:57:15.099Z,4.04
2022-12-06T04:58:14.649Z,4.07
2022-12-06T04:59:14.708Z,4.06
2022-12-06T05:00:14.555Z,4.02
2022-12-06T05:01:14.751Z,4.07
2022-12-06T05:02:14.453Z,3.99
2022-12-06T05:03:14.729Z,3.94
2022-12-06T05:04:14.406Z,3.96
2022-12-06T05:05:14.745Z,3.96
2022-12-06T05:06:14.260Z,3.99
2022-12-06T05:07:14.356Z,3.99
2022-12-06T05:08:14.292Z,3.84
2022-12-06T05:09:14.367Z,3.88
2022-12-06T05:10:14.068Z,3.95
2022-12-06T05:11:14.176Z,3.94
2022-12-06T05:12:13.968Z,3.96
2022-12-06T05:13:15.212Z,4.00
2022-12-06T05:14:13.876Z,4.06
2022-12-06T05:15:15.960Z,4.07
2022-12-06T05:16:14.026Z,4.02
2022-12-06T05:17:13.727Z,3.99
2022-12-06T05:18:13.823Z,4.07
2022-12-06T05:19:13.707Z,4.03
2022-12-06T05:20:13.835Z,4.06
2022-12-06T05:21:13.527Z,4.09
2022-12-06T05:22:13.483Z,4.07
2022-12-06T05:23:13.652Z,4.02
2022-12-06T05:24:13.704Z,4.13
2022-12-06T05:25:13.459Z,4.14
2022-12-06T05:26:13.284Z,4.18
2022-12-06T05:27:13.474Z,4.14
2022-12-06T05:28:13.187Z,4.13
2022-12-06T05:29:13.282Z,4.20
2022-12-06T05:30:13.107Z,4.14
2022-12-06T05:31:13.264Z,4.16
2022-12-06T05:32:13.006Z,4.16
2022-12-06T05:33:13.223Z,4.12
2022-12-06T05:34:13.019Z,4.12
2022-12-06T05:35:13.069Z,4.09
2022-12-06T05:36:13.038Z,4.09
2022-12-06T05:37:12.753Z,4.06
2022-12-06T05:38:12.837Z,4.04
2022-12-06T05:39:12.655Z,4.10
2022-12-06T05:40:12.603Z,4.14
2022-12-06T05:41:12.861Z,4.06
2022-12-06T05:42:20.440Z,4.13
2022-12-06T05:43:12.456Z,4.20
2022-12-06T05:44:12.886Z,4.09
2022-12-06T05:45:12.362Z,4.09
2022-12-06T05:46:12.352Z,4.07
2022-12-06T05:47:12.496Z,4.02
2022-12-06T05:48:12.225Z,4.00
2022-12-06T05:49:12.299Z,3.88
2022-12-06T05:50:12.150Z,3.85
2022-12-06T05:51:12.318Z,3.92
2022-12-06T05:52:12.326Z,3.94
2022-12-06T05:53:11.971Z,3.77
2022-12-06T05:54:12.139Z,3.71
2022-12-06T05:55:11.906Z,3.74
2022-12-06T05:56:12.355Z,3.81
2022-12-06T05:57:11.778Z,3.70
2022-12-06T05:58:11.869Z,3.66
2022-12-06T05:59:11.967Z,3.63
2022-12-06T06:03:48.013Z,3.40
2022-12-06T06:04:46.832Z,3.36
2022-12-06T06:05:47.034Z,3.34
2022-12-06T06:06:46.719Z,3.33
2022-12-06T06:07:47.907Z,3.30
2022-12-06T06:08:46.633Z,3.26
2022-12-06T06:09:46.601Z,3.21
2022-12-06T06:10:46.523Z,3.15
2022-12-06T06:11:46.670Z,3.12
2022-12-06T06:12:46.423Z,3.11
2022-12-06T06:13:46.683Z,3.12
2022-12-06T06:14:46.330Z,3.06
2022-12-06T06:15:46.542Z,3.06
2022-12-06T06:16:46.394Z,3.06
2022-12-06T06:17:46.306Z,3.13
2022-12-06T06:18:46.121Z,3.00
2022-12-06T06:19:51.173Z,2.97
2022-12-06T06:20:46.027Z,3.08
2022-12-06T06:21:45.980Z,2.97
2022-12-06T06:22:46.193Z,3.05
2022-12-06T06:23:46.139Z,3.12
2022-12-06T06:24:45.833Z,3.19
2022-12-06T06:25:45.950Z,3.18
2022-12-06T06:26:45.730Z,3.22
2022-12-06T06:27:45.966Z,3.21
2022-12-06T06:28:45.636Z,3.15
2022-12-06T06:29:45.809Z,3.13
2022-12-06T06:30:53.296Z,3.08
2022-12-06T06:31:47.747Z,3.08
2022-12-06T06:32:45.441Z,3.05
2022-12-06T06:33:45.806Z,3.03
2022-12-06T06:34:45.338Z,3.15
2022-12-06T06:35:45.407Z,3.19
2022-12-06T06:36:46.128Z,3.26
2022-12-06T06:37:45.423Z,3.21
2022-12-06T06:38:45.178Z,3.08
2022-12-06T06:39:45.237Z,3.09
2022-12-06T06:40:45.058Z,3.08
2022-12-06T06:41:45.251Z,2.98
2022-12-06T06:42:44.944Z,3.08
2022-12-06T06:43:45.058Z,3.05
2022-12-06T06:44:45.137Z,2.98
2022-12-06T06:45:45.100Z,3.03
2022-12-06T06:46:44.745Z,3.01
2022-12-06T06:47:44.892Z,3.06
2022-12-06T06:48:44.818Z,3.08
2022-12-06T06:49:44.905Z,3.03
2022-12-06T06:50:44.550Z,3.13
2022-12-06T06:51:44.707Z,2.93
2022-12-06T06:52:44.464Z,2.98
2022-12-06T06:53:44.720Z,3.08
2022-12-06T06:54:44.578Z,3.06
2022-12-06T06:55:44.537Z,2.97
2022-12-06T06:56:44.250Z,3.05
2022-12-06T06:57:44.343Z,3.00
2022-12-06T06:58:44.156Z,3.03
2022-12-06T06:59:44.359Z,3.06
2022-12-06T07:00:44.105Z,3.05
2022-12-06T07:01:44.135Z,2.91
2022-12-06T07:02:43.993Z,3.01
2022-12-06T07:03:44.280Z,2.98
2022-12-06T07:04:43.856Z,2.93
2022-12-06T07:05:43.989Z,2.97
2022-12-06T07:06:43.768Z,2.93
2022-12-06T07:07:43.939Z,3.00
2022-12-06T07:08:43.661Z,3.06
2022-12-06T07:09:43.711Z,2.97
2022-12-06T07:10:43.558Z,3.11
2022-12-06T07:11:43.724Z,3.16
2022-12-06T07:12:43.468Z,3.13
2022-12-06T07:13:46.905Z,3.18
2022-12-06T07:14:43.369Z,3.13
2022-12-06T07:15:43.549Z,3.21
2022-12-06T07:16:43.280Z,3.34
2022-12-06T07:17:43.217Z,3.30
2022-12-06T07:18:43.365Z,3.34
2022-12-06T07:19:43.117Z,3.36
2022-12-06T07:20:43.176Z,3.40
2022-12-06T07:21:43.047Z,3.33
2022-12-06T07:22:42.970Z,3.36
2022-12-06T07:23:42.997Z,3.36
2022-12-06T07:24:46.576Z,3.34
2022-12-06T07:25:43.011Z,3.34
2022-12-06T07:26:42.863Z,3.34
2022-12-06T07:27:42.819Z,3.34
2022-12-06T07:28:42.676Z,3.27
2022-12-06T07:29:42.836Z,3.29
2022-12-06T07:30:42.659Z,3.11
2022-12-06T07:31:42.646Z,3.19
2022-12-06T07:32:42.507Z,3.27
2022-12-06T07:33:42.674Z,3.18
2022-12-06T07:34:42.516Z,3.19
2022-12-06T07:36:11.056Z,3.13
2022-12-06T07:36:42.294Z,3.19
2022-12-06T07:37:42.282Z,3.21
2022-12-06T07:38:42.183Z,3.26
2022-12-06T07:39:42.301Z,3.31
2022-12-06T07:41:03.599Z,3.33
2022-12-06T07:41:42.036Z,3.18
2022-12-06T07:42:41.988Z,3.37
2022-12-06T07:43:42.020Z,3.19
2022-12-06T07:44:41.888Z,3.34
2022-12-06T07:45:42.054Z,3.27
2022-12-06T07:46:41.794Z,3.36
2022-12-06T07:47:41.945Z,3.36
2022-12-06T07:48:41.835Z,3.40
2022-12-06T07:49:41.772Z,3.37
2022-12-06T07:50:41.596Z,3.45
2022-12-06T07:51:41.553Z,3.53
2022-12-06T07:52:41.498Z,3.59
2022-12-06T07:53:41.573Z,3.68
2022-12-06T07:54:41.632Z,3.73
2022-12-06T07:55:41.387Z,3.71
2022-12-06T07:56:41.303Z,3.81
2022-12-06T07:57:43.624Z,3.77
2022-12-06T07:58:41.204Z,3.81
2022-12-06T07:59:41.212Z,3.81
2022-12-06T08:00:41.131Z,3.89
2022-12-06T08:01:41.352Z,3.85
2022-12-06T08:02:41.011Z,3.99
2022-12-06T08:03:40.968Z,3.95
2022-12-06T08:04:41.085Z,4.02
2022-12-06T08:05:40.910Z,3.95
2022-12-06T08:06:40.854Z,4.06
2022-12-06T08:07:40.849Z,4.02
2022-12-06T08:08:40.872Z,4.06
2022-12-06T08:09:40.771Z,4.13
2022-12-06T08:10:40.621Z,4.18
2022-12-06T08:11:40.785Z,4.03
2022-12-06T08:12:40.521Z,4.14
2022-12-06T08:13:40.698Z,4.16
2022-12-06T08:14:40.421Z,4.20
2022-12-06T08:15:40.433Z,4.16
2022-12-06T08:16:40.515Z,4.00
2022-12-06T08:17:40.301Z,4.00
2022-12-06T08:18:40.326Z,4.03
2022-12-06T08:19:40.182Z,4.07
2022-12-06T08:20:40.341Z,4.06
2022-12-06T08:21:40.091Z,4.16
2022-12-06T08:22:40.156Z,4.24
2022-12-06T08:23:40.211Z,4.22
2022-12-06T08:24:40.162Z,4.30
2022-12-06T08:25:39.897Z,4.18
2022-12-06T08:26:39.973Z,4.24
2022-12-06T08:27:39.879Z,4.25
2022-12-06T08:28:39.747Z,4.32
2022-12-06T08:29:39.790Z,4.22
2022-12-06T08:30:39.733Z,4.18
2022-12-06T08:31:39.998Z,4.20
2022-12-06T08:32:39.551Z,4.20
2022-12-06T08:33:39.502Z,4.25
2022-12-06T08:34:39.620Z,4.31
2022-12-06T08:35:39.404Z,4.25
2022-12-06T08:36:39.436Z,4.38
2022-12-06T08:37:39.333Z,4.38
2022-12-06T08:38:39.553Z,4.32
2022-12-06T08:39:39.212Z,4.38
2022-12-06T08:40:39.264Z,4.53
2022-12-06T08:41:39.118Z,4.64
2022-12-06T08:42:39.275Z,4.60
2022-12-06T08:43:39.131Z,4.63
2022-12-06T08:44:39.083Z,4.76
2022-12-06T08:45:38.921Z,4.76
2022-12-06T08:46:39.142Z,4.71
2022-12-06T08:47:38.828Z,4.90
2022-12-06T08:48:43.022Z,4.95
2022-12-06T08:49:38.959Z,5.04
2022-12-06T08:50:38.922Z,5.22
2022-12-06T08:51:38.630Z,5.26
2022-12-06T08:52:38.845Z,5.29
2022-12-06T08:53:38.542Z,5.28
2022-12-06T08:54:38.540Z,5.29
2022-12-06T08:55:38.492Z,5.29
2022-12-06T08:56:38.561Z,5.28
2022-12-06T08:57:38.344Z,5.20
2022-12-06T08:58:38.368Z,5.13
2022-12-06T08:59:38.250Z,5.05
2022-12-06T09:00:39.425Z,5.13
2022-12-06T09:01:38.883Z,5.13
2022-12-06T09:02:38.117Z,5.07
2022-12-06T09:03:38.083Z,4.95
2022-12-06T09:04:38.260Z,5.00
2022-12-06T09:05:37.961Z,5.07
2022-12-06T09:06:38.013Z,5.04
2022-12-06T09:07:37.911Z,5.12
2022-12-06T09:08:37.824Z,4.92
2022-12-06T09:09:37.880Z,4.95
2022-12-06T09:10:37.842Z,4.86
2022-12-06T09:11:37.673Z,4.92
2022-12-06T09:12:37.855Z,4.86
2022-12-06T09:13:37.609Z,4.98
2022-12-06T09:14:37.528Z,5.04
2022-12-06T09:15:37.540Z,4.90
2022-12-06T09:16:37.679Z,5.04
2022-12-06T09:17:37.387Z,5.02
2022-12-06T09:18:37.485Z,5.19
2022-12-06T09:19:37.547Z,5.23
2022-12-06T09:20:37.247Z,5.23
2022-12-06T09:21:37.192Z,5.28
2022-12-06T09:22:37.320Z,5.36
2022-12-06T09:23:37.106Z,5.44
2022-12-06T09:24:37.119Z,5.43
2022-12-06T09:25:37.032Z,5.40
2022-12-06T09:26:36.953Z,5.46
2022-12-06T09:27:36.913Z,5.52
2022-12-06T09:28:36.948Z,5.58
2022-12-06T09:29:40.529Z,5.59
2022-12-06T09:30:36.962Z,5.64
2022-12-06T09:31:36.871Z,5.64
2022-12-06T09:32:36.675Z,5.64
2022-12-06T09:33:36.623Z,5.73
2022-12-06T09:34:36.791Z,5.69
2022-12-06T09:35:36.527Z,5.72
2022-12-06T09:36:36.614Z,5.72
2022-12-06T09:37:36.471Z,5.76
2022-12-06T09:38:36.383Z,5.83
2022-12-06T09:39:36.415Z,5.84
2022-12-06T09:40:41.365Z,5.83
2022-12-06T09:41:36.430Z,5.95
2022-12-06T09:42:36.195Z,6.02
2022-12-06T09:43:36.443Z,6.10
2022-12-06T09:44:36.254Z,6.13
2022-12-06T09:45:36.049Z,6.09
2022-12-06T09:46:36.081Z,6.12
2022-12-06T09:47:35.992Z,6.05
2022-12-06T09:48:36.069Z,6.10
2022-12-06T09:49:35.862Z,6.10
2022-12-06T09:50:35.815Z,5.98
2022-12-06T09:51:35.768Z,6.10
2022-12-06T09:52:35.795Z,6.16
2022-12-06T09:53:35.764Z,6.09
2022-12-06T09:54:35.708Z,6.15
2022-12-06T09:55:35.580Z,6.12
2022-12-06T09:56:35.529Z,6.13
2022-12-06T09:57:35.508Z,6.19
2022-12-06T09:58:35.639Z,6.10
2022-12-06T09:59:35.414Z,6.19
2022-12-06T10:00:35.438Z,6.25
2022-12-06T10:01:35.312Z,6.20
2022-12-06T10:02:35.306Z,6.17
2022-12-06T10:03:35.413Z,6.29
2022-12-06T10:04:35.382Z,6.35
2022-12-06T10:05:35.102Z,6.25
2022-12-06T10:06:35.183Z,6.26
2022-12-06T10:07:35.058Z,6.31
2022-12-06T10:08:35.277Z,6.25
2022-12-06T10:09:34.952Z,6.20
2022-12-06T10:10:35.003Z,6.26
2022-12-06T10:11:34.814Z,6.25
2022-12-06T10:12:35.019Z,6.20
2022-12-06T10:13:34.727Z,6.39
2022-12-06T10:14:34.825Z,6.43
2022-12-06T10:15:34.886Z,6.41
2022-12-06T10:16:34.694Z,6.46
2022-12-06T10:17:34.537Z,6.39
2022-12-06T10:18:34.650Z,6.38
2022-12-06T10:19:34.443Z,6.44
2022-12-06T10:20:34.487Z,6.41
2022-12-06T10:21:34.372Z,6.43
2022-12-06T10:22:34.679Z,6.47
2022-12-06T10:23:34.250Z,6.39
2022-12-06T10:24:34.282Z,6.44
2022-12-06T10:25:34.163Z,6.54
2022-12-06T10:26:34.299Z,6.54
2022-12-06T10:27:34.151Z,6.59
2022-12-06T10:28:34.115Z,6.60
2022-12-06T10:29:33.968Z,6.56
2022-12-06T10:30:34.136Z,6.72
2022-12-06T10:31:33.936Z,6.80
2022-12-06T10:32:33.937Z,6.75
2022-12-06T10:33:33.801Z,6.75
2022-12-06T10:34:33.948Z,6.72
2022-12-06T10:35:33.681Z,6.70
2022-12-06T10:36:33.760Z,6.72
2022-12-06T10:37:33.585Z,6.71
2022-12-06T10:38:33.774Z,6.82
2022-12-06T10:39:33.494Z,6.75
2022-12-06T10:40:33.589Z,6.80
2022-12-06T10:41:33.398Z,6.77
2022-12-06T10:42:33.609Z,6.78
2022-12-06T10:43:33.306Z,6.83
2022-12-06T10:44:33.411Z,6.92
2022-12-06T10:45:33.469Z,6.87
2022-12-06T10:46:33.505Z,6.95
2022-12-06T10:47:33.130Z,7.00
2022-12-06T10:48:33.238Z,6.97
2022-12-06T10:49:33.024Z,7.13
2022-12-06T10:50:33.044Z,7.25
2022-12-06T10:51:32.953Z,7.31
2022-12-06T10:52:33.066Z,7.41
2022-12-06T10:53:32.838Z,7.44
2022-12-06T10:54:32.868Z,7.40
2022-12-06T10:55:32.924Z,7.53
2022-12-06T10:56:32.894Z,7.56
2022-12-06T10:57:32.645Z,7.61
2022-12-06T10:58:32.696Z,7.62
2022-12-06T10:59:32.554Z,7.67
2022-12-06T11:00:32.642Z,7.69
2022-12-06T11:01:32.532Z,7.56
2022-12-06T11:02:32.566Z,7.69
2022-12-06T11:03:32.376Z,7.62
2022-12-06T11:04:32.531Z,7.74
2022-12-06T11:05:32.276Z,7.70
2022-12-06T11:06:32.337Z,7.74
2022-12-06T11:07:32.290Z,7.88
2022-12-06T11:08:32.351Z,7.84
2022-12-06T11:09:32.091Z,7.84
2022-12-06T11:10:32.170Z,7.91
2022-12-06T11:11:32.228Z,7.93
2022-12-06T11:12:32.187Z,7.93
2022-12-06T11:13:31.903Z,7.93
2022-12-06T11:14:31.986Z,8.11
2022-12-06T11:15:31.812Z,8.02
2022-12-06T11:16:32.059Z,8.03
2022-12-06T11:17:31.755Z,8.05
2022-12-06T11:18:31.812Z,8.13
2022-12-06T11:19:31.620Z,8.17
2022-12-06T11:20:31.830Z,8.16
2022-12-06T11:21:31.636Z,8.21
2022-12-06T11:22:31.486Z,8.23
2022-12-06T11:23:31.849Z,8.26
2022-12-06T11:24:31.390Z,8.21
2022-12-06T11:25:31.462Z,8.31
2022-12-06T11:26:31.298Z,8.27
2022-12-06T11:27:31.253Z,8.36
2022-12-06T11:28:31.209Z,8.39
2022-12-06T11:29:31.277Z,8.45
2022-12-06T11:30:31.112Z,8.46
2022-12-06T11:31:31.357Z,8.45
2022-12-06T11:32:31.033Z,8.49
2022-12-06T11:33:30.971Z,8.44
2022-12-06T11:34:30.926Z,8.42
2022-12-06T11:35:31.341Z,8.44
2022-12-06T11:36:30.834Z,8.45
2022-12-06T11:37:30.926Z,8.50
2022-12-06T11:38:30.779Z,8.44
2022-12-06T11:39:30.694Z,8.53
2022-12-06T11:40:30.647Z,8.61
2022-12-06T11:41:30.795Z,8.60
2022-12-06T11:42:30.556Z,8.71
2022-12-06T11:43:30.570Z,8.82
2022-12-06T11:44:30.823Z,9.02
2022-12-06T11:45:30.421Z,9.05
2022-12-06T11:46:30.542Z,9.21
2022-12-06T11:47:30.592Z,9.36
2022-12-06T11:48:30.280Z,9.42
2022-12-06T11:49:30.404Z,9.48
2022-12-06T11:50:30.217Z,9.54
2022-12-06T11:51:30.147Z,9.76
2022-12-06T11:52:30.223Z,9.80
2022-12-06T11:53:30.056Z,9.87
2022-12-06T11:54:30.435Z,9.95
2022-12-06T11:55:29.961Z,10.06
2022-12-06T11:56:30.047Z,10.17
2022-12-06T11:57:30.052Z,10.25
2022-12-06T11:58:29.823Z,10.38
2022-12-06T11:59:29.864Z,10.46
2022-12-06T12:00:31.157Z,10.64
2022-12-06T12:01:29.876Z,11.00
2022-12-06T12:02:29.682Z,11.27
2022-12-06T12:03:29.816Z,11.56
2022-12-06T12:04:29.698Z,11.85
2022-12-06T12:05:29.513Z,11.89
2022-12-06T12:06:29.705Z,12.05
2022-12-06T12:07:29.427Z,12.18
2022-12-06T12:08:32.588Z,12.35
2022-12-06T12:09:29.531Z,12.47
2022-12-06T12:10:29.293Z,12.53
2022-12-06T12:11:29.343Z,12.54
2022-12-06T12:12:29.211Z,12.62
2022-12-06T12:13:29.346Z,12.48
2022-12-06T12:14:29.125Z,12.40
2022-12-06T12:15:29.209Z,12.53
2022-12-06T12:16:29.196Z,12.39
2022-12-06T12:17:28.986Z,12.39
2022-12-06T12:18:29.179Z,12.65
2022-12-06T12:19:28.909Z,12.61
2022-12-06T12:20:28.991Z,12.57
2022-12-06T12:21:29.000Z,12.73
2022-12-06T12:22:28.772Z,12.88
2022-12-06T12:23:28.806Z,13.09
2022-12-06T12:24:28.688Z,13.08
2022-12-06T12:25:28.820Z,13.20
2022-12-06T12:26:28.593Z,13.21
2022-12-06T12:27:28.828Z,13.47
2022-12-06T12:28:28.639Z,13.73
2022-12-06T12:29:28.464Z,14.05
2022-12-06T12:30:28.652Z,14.33
2022-12-06T12:31:28.415Z,14.63
2022-12-06T12:32:28.463Z,15.02
2022-12-06T12:33:28.474Z,15.23
2022-12-06T12:34:28.254Z,15.59
2022-12-06T12:35:28.501Z,15.99
2022-12-06T12:36:28.179Z,16.50
2022-12-06T12:37:28.299Z,16.84
2022-12-06T12:38:28.111Z,17.20
2022-12-06T12:39:28.168Z,17.54
2022-12-06T12:40:28.018Z,17.76
2022-12-06T12:41:28.126Z,17.94
2022-12-06T12:42:27.925Z,18.08
2022-12-06T12:43:27.941Z,18.37
2022-12-06T12:44:42.899Z,18.58
2022-12-06T12:45:27.833Z,18.85
2022-12-06T12:46:27.993Z,19.01
2022-12-06T12:47:27.734Z,19.01
2022-12-06T12:48:36.400Z,19.16
2022-12-06T12:49:28.794Z,19.35
2022-12-06T12:50:27.622Z,19.34
2022-12-06T12:51:27.583Z,19.38
2022-12-06T12:52:27.587Z,19.45
2022-12-06T12:53:27.498Z,19.52
2022-12-06T12:54:27.603Z,19.49
2022-12-06T12:55:27.670Z,19.45
2022-12-06T12:56:27.617Z,19.42
2022-12-06T12:57:27.343Z,19.22
2022-12-06T12:58:31.630Z,19.19
2022-12-06T12:59:27.311Z,19.00
2022-12-06T13:00:27.453Z,18.98
2022-12-06T13:01:27.300Z,18.91
2022-12-06T13:02:27.341Z,18.83
2022-12-06T13:04:27.074Z,18.85
2022-12-06T13:05:33.658Z,18.68
2022-12-06T13:06:26.999Z,18.36
2022-12-06T13:07:27.087Z,17.98
2022-12-06T13:08:27.052Z,17.88
2022-12-06T13:09:27.094Z,17.93
2022-12-06T13:10:26.840Z,17.86
2022-12-06T13:11:27.117Z,17.97
2022-12-06T13:12:26.772Z,17.79
2022-12-06T13:13:26.827Z,18.03
2022-12-06T13:14:26.688Z,17.98
2022-12-06T13:15:26.935Z,18.03
2022-12-06T13:16:26.665Z,18.24
2022-12-06T13:17:26.951Z,18.34
2022-12-06T13:18:26.534Z,18.16
2022-12-06T13:19:26.554Z,18.27